createdAt,value
2022-09-30T00:03:20.377Z,100.00
2022-09-30T00:08:23.778Z,100.00
2022-09-30T00:13:27.622Z,100.00
2022-09-30T00:18:31.635Z,100.00
2022-09-30T00:23:38.118Z,100.00
2022-09-30T00:28:42.337Z,100.00
2022-09-30T00:34:06.841Z,100.00
2022-09-30T00:39:14.144Z,100.00
2022-09-30T00:44:45.887Z,100.00
2022-09-30T00:49:49.516Z,100.00
2022-09-30T00:54:54.064Z,100.00
2022-09-30T00:59:57.883Z,100.00
2022-09-30T01:05:01.136Z,100.00
2022-09-30T01:10:04.336Z,100.00
2022-09-30T01:15:08.127Z,100.00
2022-09-30T01:21:19.271Z,100.00
2022-09-30T01:26:46.448Z,100.00
2022-09-30T01:32:04.918Z,100.00
2022-09-30T01:37:31.554Z,100.00
2022-09-30T01:43:00.315Z,100.00
2022-09-30T01:48:21.532Z,100.00
2022-09-30T01:53:25.115Z,100.00
2022-09-30T01:58:45.457Z,100.00
2022-09-30T02:03:53.787Z,100.00
2022-09-30T02:09:07.859Z,100.00
2022-09-30T02:14:41.678Z,100.00
2022-09-30T02:19:57.246Z,100.00
2022-09-30T02:25:02.748Z,100.00
2022-09-30T02:30:09.612Z,100.00
2022-09-30T02:35:27.113Z,100.00
2022-09-30T02:40:44.787Z,100.00
2022-09-30T02:46:10.675Z,100.00
2022-09-30T02:51:19.598Z,100.00
2022-09-30T02:56:48.944Z,100.00
2022-09-30T03:01:52.247Z,100.00
2022-09-30T03:06:55.820Z,100.00
2022-09-30T03:12:33.111Z,100.00
2022-09-30T03:17:45.445Z,100.00
2022-09-30T03:23:27.766Z,100.00
2022-09-30T03:28:38.920Z,100.00
2022-09-30T03:33:52.687Z,100.00
2022-09-30T03:39:03.062Z,100.00
2022-09-30T03:44:15.212Z,100.00
2022-09-30T03:49:28.627Z,100.00
2022-09-30T03:54:32.450Z,100.00
2022-09-30T03:59:35.686Z,100.00
2022-09-30T04:04:43.027Z,100.00
2022-09-30T04:09:46.361Z,100.00
2022-09-30T04:14:49.615Z,100.00
2022-09-30T04:19:53.248Z,100.00
2022-09-30T04:24:56.554Z,100.00
2022-09-30T04:29:59.825Z,100.00
2022-09-30T04:35:03.882Z,100.00
2022-09-30T04:40:07.552Z,100.00
2022-09-30T04:45:13.045Z,100.00
2022-09-30T04:50:16.471Z,100.00
2022-09-30T04:55:19.924Z,100.00
2022-09-30T05:00:23.243Z,100.00
2022-09-30T05:05:26.492Z,100.00
2022-09-30T05:10:30.273Z,100.00
2022-09-30T05:15:35.316Z,100.00
2022-09-30T05:20:38.594Z,100.00
2022-09-30T05:25:42.404Z,100.00
2022-09-30T05:30:47.047Z,100.00
2022-09-30T05:35:50.437Z,100.00
2022-09-30T05:40:54.809Z,100.00
2022-09-30T05:45:58.090Z,100.00
2022-09-30T05:51:01.873Z,100.00
2022-09-30T05:56:12.303Z,100.00
2022-09-30T06:01:17.414Z,100.00
2022-09-30T06:06:21.899Z,100.00
2022-09-30T06:11:25.536Z,100.00
2022-09-30T06:16:30.086Z,100.00
2022-09-30T06:21:33.405Z,100.00
2022-09-30T06:26:36.739Z,100.00
2022-09-30T06:31:40.161Z,100.00
2022-09-30T06:36:43.539Z,100.00
2022-09-30T06:41:47.051Z,100.00
2022-09-30T06:46:55.997Z,100.00
2022-09-30T06:52:00.802Z,100.00
2022-09-30T06:57:04.031Z,100.00
2022-09-30T07:02:07.238Z,100.00
2022-09-30T07:07:11.451Z,100.00
2022-09-30T07:12:14.707Z,100.00
2022-09-30T07:17:17.986Z,100.00
2022-09-30T07:22:28.313Z,100.00
2022-09-30T07:27:33.013Z,100.00
2022-09-30T07:32:37.013Z,100.00
2022-09-30T07:37:40.271Z,100.00
2022-09-30T07:42:46.233Z,100.00
2022-09-30T07:47:53.730Z,100.00
2022-09-30T07:52:57.975Z,100.00
2022-09-30T07:58:02.188Z,100.00
2022-09-30T08:03:05.661Z,100.00
2022-09-30T08:08:09.090Z,100.00
2022-09-30T08:13:14.266Z,100.00
2022-09-30T08:18:19.291Z,100.00
2022-09-30T08:23:23.170Z,100.00
2022-09-30T08:28:26.401Z,100.00
2022-09-30T08:33:29.664Z,100.00
2022-09-30T08:38:33.778Z,100.00
2022-09-30T08:44:05.178Z,100.00
2022-09-30T08:49:54.578Z,100.00
2022-09-30T08:54:58.175Z,100.00
2022-09-30T09:00:10.501Z,100.00
2022-09-30T09:05:23.728Z,100.00
2022-09-30T09:10:28.281Z,100.00
2022-09-30T09:15:44.098Z,100.00
2022-09-30T09:20:54.347Z,100.00
2022-09-30T09:25:59.100Z,100.00
2022-09-30T09:31:04.521Z,100.00
2022-09-30T09:36:49.843Z,100.00
2022-09-30T09:42:05.103Z,100.00
2022-09-30T09:47:17.630Z,100.00
2022-09-30T09:52:40.196Z,100.00
2022-09-30T09:57:43.519Z,99.67
2022-09-30T10:02:59.535Z,99.70
2022-09-30T10:08:16.374Z,99.06
2022-09-30T10:13:27.060Z,98.97
2022-09-30T10:18:38.029Z,98.41
2022-09-30T10:23:41.611Z,99.04
2022-09-30T10:28:55.378Z,98.82
2022-09-30T10:34:17.520Z,98.43
2022-09-30T10:39:34.857Z,97.51
2022-09-30T10:44:55.749Z,98.17
2022-09-30T10:50:07.321Z,97.18
2022-09-30T10:55:19.875Z,96.62
2022-09-30T11:00:25.557Z,95.22
2022-09-30T11:05:47.828Z,94.54
2022-09-30T11:11:08.842Z,93.70
2022-09-30T11:16:19.577Z,94.14
2022-09-30T11:21:28.102Z,93.68
2022-09-30T11:26:54.080Z,91.86
2022-09-30T11:32:19.693Z,92.27
2022-09-30T11:37:42.463Z,90.63
2022-09-30T11:43:17.012Z,89.14
2022-09-30T11:48:43.033Z,89.61
2022-09-30T11:53:58.668Z,88.55
2022-09-30T11:59:06.982Z,88.12
2022-09-30T12:04:21.297Z,87.81
2022-09-30T12:10:01.817Z,87.32
2022-09-30T12:15:16.051Z,86.11
2022-09-30T12:20:39.878Z,86.02
2022-09-30T12:25:56.842Z,86.05
2022-09-30T12:31:54.866Z,85.38
2022-09-30T12:37:58.615Z,84.92
2022-09-30T12:43:43.226Z,84.87
2022-09-30T12:49:08.055Z,84.58
2022-09-30T12:54:30.623Z,84.43
2022-09-30T12:59:45.279Z,83.56
2022-09-30T13:05:24.500Z,82.76
2022-09-30T13:10:36.999Z,81.84
2022-09-30T13:15:56.730Z,81.58
2022-09-30T13:21:05.979Z,81.74
2022-09-30T13:26:27.985Z,81.24
2022-09-30T13:31:52.783Z,81.40
2022-09-30T13:37:05.767Z,81.37
2022-09-30T13:42:21.802Z,81.08
2022-09-30T13:47:45.470Z,80.90
2022-09-30T13:53:23.323Z,80.01
2022-09-30T13:58:56.408Z,79.11
2022-09-30T14:04:12.338Z,78.71
2022-09-30T14:09:42.347Z,78.72
2022-09-30T14:15:09.113Z,79.02
2022-09-30T14:20:32.235Z,79.20
2022-09-30T14:26:01.533Z,79.38
2022-09-30T14:36:34.339Z,78.62
2022-09-30T14:42:03.470Z,78.56
2022-09-30T14:47:17.193Z,78.43
2022-09-30T14:52:53.577Z,78.04
2022-09-30T14:58:21.872Z,77.49
2022-09-30T15:04:02.399Z,77.69
2022-09-30T15:09:18.192Z,77.26
2022-09-30T15:14:27.160Z,77.34
2022-09-30T15:19:44.853Z,77.50
2022-09-30T15:24:49.257Z,77.49
2022-09-30T15:29:56.606Z,77.28
2022-09-30T15:35:11.723Z,77.64
2022-09-30T15:40:39.611Z,77.87
2022-09-30T15:45:44.563Z,78.20
2022-09-30T15:50:50.032Z,78.47
2022-09-30T15:56:17.105Z,79.05
2022-09-30T16:01:46.618Z,79.61
2022-09-30T16:07:32.230Z,80.11
2022-09-30T16:12:41.823Z,80.45
2022-09-30T16:18:02.658Z,80.82
2022-09-30T16:23:13.159Z,81.36
2022-09-30T16:28:18.641Z,81.80
2022-09-30T16:33:22.348Z,82.23
2022-09-30T16:38:30.684Z,82.67
2022-09-30T16:43:36.714Z,83.46
2022-09-30T16:48:40.097Z,84.49
2022-09-30T16:53:48.133Z,85.01
2022-09-30T16:58:51.765Z,85.36
2022-09-30T17:04:01.206Z,85.76
2022-09-30T17:09:10.213Z,86.24
2022-09-30T17:14:19.269Z,86.50
2022-09-30T17:19:25.105Z,86.86
2022-09-30T17:24:32.757Z,87.50
2022-09-30T17:29:44.392Z,87.83
2022-09-30T17:34:47.852Z,88.30
2022-09-30T17:39:55.749Z,88.67
2022-09-30T17:45:02.622Z,88.96
2022-09-30T17:50:16.362Z,89.34
2022-09-30T17:55:34.391Z,89.64
2022-09-30T18:00:44.192Z,90.57
2022-09-30T18:06:01.494Z,90.92
2022-09-30T18:11:13.875Z,90.87
2022-09-30T18:16:19.058Z,91.09
2022-09-30T18:21:24.493Z,91.48
2022-09-30T18:26:46.392Z,91.64
2022-09-30T18:31:53.031Z,91.53
2022-09-30T18:36:57.103Z,91.71
2022-09-30T18:42:07.255Z,92.32
2022-09-30T18:47:18.537Z,92.75
2022-09-30T18:52:24.746Z,92.90
2022-09-30T18:57:36.148Z,92.98
2022-09-30T19:02:48.952Z,93.10
2022-09-30T19:07:57.531Z,93.17
2022-09-30T19:13:18.040Z,93.54
2022-09-30T19:18:26.052Z,93.86
2022-09-30T19:23:33.207Z,94.64
2022-09-30T19:28:39.707Z,95.12
2022-09-30T19:33:56.004Z,95.37
2022-09-30T19:39:11.221Z,95.62
2022-09-30T19:44:20.552Z,95.84
2022-09-30T19:49:26.196Z,96.22
2022-09-30T19:54:40.980Z,96.60
2022-09-30T19:59:45.895Z,96.64
2022-09-30T20:04:54.745Z,96.97
2022-09-30T20:10:05.298Z,96.93
2022-09-30T20:15:34.532Z,97.36
2022-09-30T20:20:49.957Z,97.26
2022-09-30T20:25:57.402Z,97.24
2022-09-30T20:31:12.027Z,97.34
2022-09-30T20:36:20.577Z,97.71
2022-09-30T20:41:37.531Z,97.74
2022-09-30T20:46:42.790Z,98.08
2022-09-30T20:52:14.232Z,98.41
2022-09-30T20:57:19.422Z,98.68
2022-09-30T21:02:27.801Z,99.10
2022-09-30T21:07:31.421Z,99.08
2022-09-30T21:12:44.787Z,99.21
2022-09-30T21:18:04.963Z,99.47
2022-09-30T21:23:09.828Z,99.83
2022-09-30T21:28:16.108Z,99.97
2022-09-30T21:33:26.237Z,100.00
2022-09-30T21:38:30.894Z,100.00
2022-09-30T21:43:38.305Z,100.00
2022-09-30T21:48:46.916Z,100.00
2022-09-30T21:53:52.287Z,100.00
2022-09-30T21:58:58.432Z,100.00
2022-09-30T22:04:01.856Z,100.00
2022-09-30T22:09:16.270Z,100.00
2022-09-30T22:14:20.208Z,100.00
2022-09-30T22:19:24.583Z,100.00
2022-09-30T22:24:28.385Z,100.00
2022-09-30T22:29:32.812Z,100.00
2022-09-30T22:34:57.262Z,100.00
2022-09-30T22:40:01.150Z,100.00
2022-09-30T22:45:06.722Z,100.00
2022-09-30T22:50:10.043Z,100.00
2022-09-30T22:55:15.176Z,100.00
2022-09-30T23:00:19.371Z,100.00
2022-09-30T23:05:29.033Z,100.00
2022-09-30T23:10:33.053Z,100.00
2022-09-30T23:15:37.230Z,100.00
2022-09-30T23:20:54.298Z,100.00
2022-09-30T23:26:08.843Z,100.00
2022-09-30T23:31:18.682Z,100.00
2022-09-30T23:36:27.495Z,100.00
2022-09-30T23:41:37.017Z,100.00
2022-09-30T23:47:01.493Z,100.00
2022-09-30T23:52:13.770Z,100.00
2022-09-30T23:57:25.891Z,100.00
